Back to Top

Language: 

My Weather Underground Personal Weather Station Historical Data with Graphs...

Delerius Weather Station Historical Data
Daily Summary for May 3, 2017 Units:  Both    English   Metric
« Previous Day
Next Day »
Daily Weekly Monthly Yearly Custom
  High: Low: Average:
Temperature: 59.5 °F /  15.3 °C 41.5 °F /  5.3 °C 50.2 °F /  10.1 °C
Dew Point: 45.0 °F /  7.2 °C 35.0 °F /  1.7 °C 41.5 °F /  5.3 °C
Humidity: 93 % 40 % 74 %
Wind Speed: 13.0 mph /  20.9 km/h - 7.5 mph /  12.1 km/h
Wind Gust: 26.0 mph /  41.8 km/h - -
Wind:- - ENE
Pressure: 30.33 in /  1027 hPa 30.28 in /  1025.3 hPa -
Precipitation: 0.00 in /  0 mm    
Historical Graphs
 
 
Tabular Data for May 3, 2017
Time Temperature Dew Point Pressure Wind Wind Speed Wind Gust Humidity Rainfall Rate (Hourly) solar Conditions
00:04 46.8 °F /  8.2 °C 43.4 °F /  6.3 °C 30.31 in /  1026.3 hPa ENE 4.0 mph /  6.4 km/h 12.0 mph /  19.3 km/h 88 % 0.00 in /  0 mm 0 W/m2
00:09 46.6 °F /  8.1 °C 43.2 °F /  6.2 °C 30.31 in /  1026.3 hPa NE 4.0 mph /  6.4 km/h 11.0 mph /  17.7 km/h 88 % 0.00 in /  0 mm 0 W/m2
00:14 46.6 °F /  8.1 °C 43.2 °F /  6.2 °C 30.30 in /  1026 hPa NNE 6.0 mph /  9.7 km/h 12.0 mph /  19.3 km/h 88 % 0.00 in /  0 mm 0 W/m2
00:24 46.4 °F /  8 °C 43.0 °F /  6.1 °C 30.30 in /  1026 hPa NNE 6.0 mph /  9.7 km/h 13.0 mph /  20.9 km/h 88 % 0.00 in /  0 mm 0 W/m2
00:29 46.2 °F /  7.9 °C 42.9 °F /  6.1 °C 30.31 in /  1026.3 hPa NNE 7.0 mph /  11.3 km/h 13.0 mph /  20.9 km/h 88 % 0.00 in /  0 mm 0 W/m2
00:34 46.2 °F /  7.9 °C 42.9 °F /  6.1 °C 30.30 in /  1026 hPa NNE 6.0 mph /  9.7 km/h 12.0 mph /  19.3 km/h 88 % 0.00 in /  0 mm 0 W/m2
00:39 46.2 °F /  7.9 °C 42.9 °F /  6.1 °C 30.30 in /  1026 hPa NNE 5.0 mph /  8 km/h 10.0 mph /  16.1 km/h 88 % 0.00 in /  0 mm 0 W/m2
00:44 46.0 °F /  7.8 °C 42.7 °F /  5.9 °C 30.30 in /  1026 hPa NNE 6.0 mph /  9.7 km/h 12.0 mph /  19.3 km/h 88 % 0.00 in /  0 mm 0 W/m2
00:50 46.0 °F /  7.8 °C 42.7 °F /  5.9 °C 30.30 in /  1026 hPa NNE 5.0 mph /  8 km/h 14.0 mph /  22.5 km/h 88 % 0.00 in /  0 mm 0 W/m2
00:55 46.0 °F /  7.8 °C 43.0 °F /  6.1 °C 30.30 in /  1026 hPa NNE 5.0 mph /  8 km/h 14.0 mph /  22.5 km/h 89 % 0.00 in /  0 mm 0 W/m2
01:00 45.9 °F /  7.7 °C 42.8 °F /  6 °C 30.30 in /  1026 hPa NNE 4.0 mph /  6.4 km/h 10.0 mph /  16.1 km/h 89 % 0.00 in /  0 mm 0 W/m2
01:05 45.9 °F /  7.7 °C 42.8 °F /  6 °C 30.30 in /  1026 hPa NNE 6.0 mph /  9.7 km/h 14.0 mph /  22.5 km/h 89 % 0.00 in /  0 mm 0 W/m2
01:10 45.7 °F /  7.6 °C 42.6 °F /  5.9 °C 30.30 in /  1026 hPa NNE 7.0 mph /  11.3 km/h 14.0 mph /  22.5 km/h 89 % 0.00 in /  0 mm 0 W/m2
01:15 45.5 °F /  7.5 °C 42.4 °F /  5.8 °C 30.30 in /  1026 hPa NNE 6.0 mph /  9.7 km/h 13.0 mph /  20.9 km/h 89 % 0.00 in /  0 mm 0 W/m2
01:20 45.3 °F /  7.4 °C 42.3 °F /  5.7 °C 30.30 in /  1026 hPa NNE 6.0 mph /  9.7 km/h 13.0 mph /  20.9 km/h 89 % 0.00 in /  0 mm 0 W/m2
01:25 45.1 °F /  7.3 °C 42.1 °F /  5.6 °C 30.30 in /  1026 hPa NNE 6.0 mph /  9.7 km/h 12.0 mph /  19.3 km/h 89 % 0.00 in /  0 mm 0 W/m2
01:30 45.1 °F /  7.3 °C 42.1 °F /  5.6 °C 30.30 in /  1026 hPa North 6.0 mph /  9.7 km/h 12.0 mph /  19.3 km/h 89 % 0.00 in /  0 mm 0 W/m2
01:35 44.8 °F /  7.1 °C 42.0 °F /  5.6 °C 30.30 in /  1026 hPa North 6.0 mph /  9.7 km/h 12.0 mph /  19.3 km/h 90 % 0.00 in /  0 mm 0 W/m2
01:40 44.6 °F /  7 °C 41.8 °F /  5.4 °C 30.30 in /  1026 hPa North 6.0 mph /  9.7 km/h 12.0 mph /  19.3 km/h 90 % 0.00 in /  0 mm 0 W/m2
01:45 44.4 °F /  6.9 °C 41.7 °F /  5.4 °C 30.30 in /  1026 hPa North 6.0 mph /  9.7 km/h 11.0 mph /  17.7 km/h 90 % 0.00 in /  0 mm 0 W/m2
01:50 44.2 °F /  6.8 °C 41.5 °F /  5.3 °C 30.31 in /  1026.3 hPa North 6.0 mph /  9.7 km/h 11.0 mph /  17.7 km/h 90 % 0.00 in /  0 mm 0 W/m2
01:55 44.1 °F /  6.7 °C 41.3 °F /  5.2 °C 30.31 in /  1026.3 hPa North 5.0 mph /  8 km/h 11.0 mph /  17.7 km/h 90 % 0.00 in /  0 mm 0 W/m2
02:00 43.9 °F /  6.6 °C 41.4 °F /  5.2 °C 30.31 in /  1026.3 hPa North 4.0 mph /  6.4 km/h 10.0 mph /  16.1 km/h 91 % 0.00 in /  0 mm 0 W/m2
02:05 43.7 °F /  6.5 °C 41.0 °F /  5 °C 30.31 in /  1026.3 hPa North 3.0 mph /  4.8 km/h 9.0 mph /  14.5 km/h 90 % 0.00 in /  0 mm 0 W/m2
02:10 43.5 °F /  6.4 °C 41.1 °F /  5.1 °C 30.31 in /  1026.3 hPa North 4.0 mph /  6.4 km/h 10.0 mph /  16.1 km/h 91 % 0.00 in /  0 mm 0 W/m2
02:15 43.3 °F /  6.3 °C 40.9 °F /  4.9 °C 30.31 in /  1026.3 hPa North 5.0 mph /  8 km/h 10.0 mph /  16.1 km/h 91 % 0.00 in /  0 mm 0 W/m2
02:20 43.3 °F /  6.3 °C 40.9 °F /  4.9 °C 30.31 in /  1026.3 hPa NNE 5.0 mph /  8 km/h 9.0 mph /  14.5 km/h 91 % 0.00 in /  0 mm 0 W/m2
02:25 43.2 °F /  6.2 °C 40.7 °F /  4.8 °C 30.30 in /  1026 hPa North 5.0 mph /  8 km/h 10.0 mph /  16.1 km/h 91 % 0.00 in /  0 mm 0 W/m2
02:30 43.2 °F /  6.2 °C 40.7 °F /  4.8 °C 30.31 in /  1026.3 hPa North 5.0 mph /  8 km/h 10.0 mph /  16.1 km/h 91 % 0.00 in /  0 mm 0 W/m2
02:35 43.0 °F /  6.1 °C 40.5 °F /  4.7 °C 30.30 in /  1026 hPa North 5.0 mph /  8 km/h 9.0 mph /  14.5 km/h 91 % 0.00 in /  0 mm 0 W/m2
02:40 42.8 °F /  6 °C 40.4 °F /  4.7 °C 30.30 in /  1026 hPa NNW 6.0 mph /  9.7 km/h 12.0 mph /  19.3 km/h 91 % 0.00 in /  0 mm 0 W/m2
02:45 42.6 °F /  5.9 °C 40.5 °F /  4.7 °C 30.30 in /  1026 hPa NNW 6.0 mph /  9.7 km/h 12.0 mph /  19.3 km/h 92 % 0.00 in /  0 mm 0 W/m2
02:50 42.6 °F /  5.9 °C 40.5 °F /  4.7 °C 30.30 in /  1026 hPa North 6.0 mph /  9.7 km/h 12.0 mph /  19.3 km/h 92 % 0.00 in /  0 mm 0 W/m2
02:55 42.6 °F /  5.9 °C 40.5 °F /  4.7 °C 30.30 in /  1026 hPa North 6.0 mph /  9.7 km/h 12.0 mph /  19.3 km/h 92 % 0.00 in /  0 mm 0 W/m2
03:00 42.4 °F /  5.8 °C 40.3 °F /  4.6 °C 30.30 in /  1026 hPa North 4.0 mph /  6.4 km/h 10.0 mph /  16.1 km/h 92 % 0.00 in /  0 mm 0 W/m2
03:05 42.4 °F /  5.8 °C 40.3 °F /  4.6 °C 30.30 in /  1026 hPa North 5.0 mph /  8 km/h 11.0 mph /  17.7 km/h 92 % 0.00 in /  0 mm 0 W/m2
03:10 42.3 °F /  5.7 °C 40.1 °F /  4.5 °C 30.30 in /  1026 hPa North 6.0 mph /  9.7 km/h 11.0 mph /  17.7 km/h 92 % 0.00 in /  0 mm 0 W/m2
03:15 42.3 °F /  5.7 °C 40.1 °F /  4.5 °C 30.30 in /  1026 hPa North 5.0 mph /  8 km/h 12.0 mph /  19.3 km/h 92 % 0.00 in /  0 mm 0 W/m2
03:20 42.3 °F /  5.7 °C 40.1 °F /  4.5 °C 30.30 in /  1026 hPa North 5.0 mph /  8 km/h 12.0 mph /  19.3 km/h 92 % 0.00 in /  0 mm 0 W/m2
03:25 42.1 °F /  5.6 °C 39.9 °F /  4.4 °C 30.30 in /  1026 hPa North 6.0 mph /  9.7 km/h 11.0 mph /  17.7 km/h 92 % 0.00 in /  0 mm 0 W/m2
03:30 42.1 °F /  5.6 °C 39.9 °F /  4.4 °C 30.30 in /  1026 hPa North 6.0 mph /  9.7 km/h 11.0 mph /  17.7 km/h 92 % 0.00 in /  0 mm 0 W/m2
03:35 42.1 °F /  5.6 °C 39.9 °F /  4.4 °C 30.30 in /  1026 hPa North 5.0 mph /  8 km/h 9.0 mph /  14.5 km/h 92 % 0.00 in /  0 mm 0 W/m2
03:40 42.1 °F /  5.6 °C 39.9 °F /  4.4 °C 30.30 in /  1026 hPa North 5.0 mph /  8 km/h 11.0 mph /  17.7 km/h 92 % 0.00 in /  0 mm 0 W/m2
03:45 41.9 °F /  5.5 °C 39.7 °F /  4.3 °C 30.30 in /  1026 hPa North 6.0 mph /  9.7 km/h 11.0 mph /  17.7 km/h 92 % 0.00 in /  0 mm 0 W/m2
03:50 41.9 °F /  5.5 °C 39.7 °F /  4.3 °C 30.30 in /  1026 hPa North 5.0 mph /  8 km/h 10.0 mph /  16.1 km/h 92 % 0.00 in /  0 mm 0 W/m2
03:55 41.7 °F /  5.4 °C 39.6 °F /  4.2 °C 30.30 in /  1026 hPa North 5.0 mph /  8 km/h 10.0 mph /  16.1 km/h 92 % 0.00 in /  0 mm 0 W/m2
04:00 41.7 °F /  5.4 °C 39.6 °F /  4.2 °C 30.30 in /  1026 hPa North 5.0 mph /  8 km/h 10.0 mph /  16.1 km/h 92 % 0.00 in /  0 mm 0 W/m2
04:05 41.7 °F /  5.4 °C 39.6 °F /  4.2 °C 30.31 in /  1026.3 hPa North 5.0 mph /  8 km/h 10.0 mph /  16.1 km/h 92 % 0.00 in /  0 mm 0 W/m2
04:10 41.5 °F /  5.3 °C 39.4 °F /  4.1 °C 30.30 in /  1026 hPa North 5.0 mph /  8 km/h 11.0 mph /  17.7 km/h 92 % 0.00 in /  0 mm 0 W/m2
04:15 41.5 °F /  5.3 °C 39.4 °F /  4.1 °C 30.30 in /  1026 hPa North 5.0 mph /  8 km/h 11.0 mph /  17.7 km/h 92 % 0.00 in /  0 mm 0 W/m2
04:20 41.5 °F /  5.3 °C 39.4 °F /  4.1 °C 30.30 in /  1026 hPa NNE 6.0 mph /  9.7 km/h 11.0 mph /  17.7 km/h 92 % 0.00 in /  0 mm 0 W/m2
04:25 41.5 °F /  5.3 °C 39.7 °F /  4.3 °C 30.30 in /  1026 hPa NNE 6.0 mph /  9.7 km/h 12.0 mph /  19.3 km/h 93 % 0.00 in /  0 mm 0 W/m2
04:30 41.5 °F /  5.3 °C 39.7 °F /  4.3 °C 30.30 in /  1026 hPa NNE 6.0 mph /  9.7 km/h 15.0 mph /  24.1 km/h 93 % 0.00 in /  0 mm 0 W/m2
04:35 41.7 °F /  5.4 °C 39.8 °F /  4.3 °C 30.30 in /  1026 hPa NNE 6.0 mph /  9.7 km/h 15.0 mph /  24.1 km/h 93 % 0.00 in /  0 mm 0 W/m2
04:40 41.7 °F /  5.4 °C 39.8 °F /  4.3 °C 30.30 in /  1026 hPa NNE 6.0 mph /  9.7 km/h 13.0 mph /  20.9 km/h 93 % 0.00 in /  0 mm 0 W/m2
04:45 41.7 °F /  5.4 °C 39.6 °F /  4.2 °C 30.30 in /  1026 hPa NNE 6.0 mph /  9.7 km/h 13.0 mph /  20.9 km/h 92 % 0.00 in /  0 mm 0 W/m2
04:50 41.5 °F /  5.3 °C 39.4 °F /  4.1 °C 30.30 in /  1026 hPa NNE 5.0 mph /  8 km/h 12.0 mph /  19.3 km/h 92 % 0.00 in /  0 mm 0 W/m2
04:55 41.5 °F /  5.3 °C 39.4 °F /  4.1 °C 30.30 in /  1026 hPa NNE 5.0 mph /  8 km/h 12.0 mph /  19.3 km/h 92 % 0.00 in /  0 mm 0 W/m2
05:01 41.5 °F /  5.3 °C 39.4 °F /  4.1 °C 30.30 in /  1026 hPa NNE 6.0 mph /  9.7 km/h 12.0 mph /  19.3 km/h 92 % 0.00 in /  0 mm 0 W/m2
05:06 41.7 °F /  5.4 °C 39.6 °F /  4.2 °C 30.30 in /  1026 hPa NNE 7.0 mph /  11.3 km/h 12.0 mph /  19.3 km/h 92 % 0.00 in /  0 mm 0 W/m2
05:08 41.7 °F /  5.4 °C 39.6 °F /  4.2 °C 30.30 in /  1026 hPa NNE 7.0 mph /  11.3 km/h 12.0 mph /  19.3 km/h 92 % 0.00 in /  0 mm 0 W/m2
05:13 41.7 °F /  5.4 °C 39.6 °F /  4.2 °C 30.30 in /  1026 hPa NNE 7.0 mph /  11.3 km/h 12.0 mph /  19.3 km/h 92 % 0.00 in /  0 mm 0 W/m2
05:14 41.7 °F /  5.4 °C 39.6 °F /  4.2 °C 30.30 in /  1026 hPa NNE 7.0 mph /  11.3 km/h 12.0 mph /  19.3 km/h 92 % 0.00 in /  0 mm 0 W/m2
05:19 41.7 °F /  5.4 °C 39.6 °F /  4.2 °C 30.30 in /  1026 hPa NNE 6.0 mph /  9.7 km/h 11.0 mph /  17.7 km/h 92 % 0.00 in /  0 mm 0 W/m2
05:24 41.7 °F /  5.4 °C 39.6 °F /  4.2 °C 30.30 in /  1026 hPa NNE 6.0 mph /  9.7 km/h 11.0 mph /  17.7 km/h 92 % 0.00 in /  0 mm 0 W/m2
05:29 41.5 °F /  5.3 °C 39.4 °F /  4.1 °C 30.30 in /  1026 hPa NNE 6.0 mph /  9.7 km/h 11.0 mph /  17.7 km/h 92 % 0.00 in /  0 mm 5 W/m2
05:34 41.5 °F /  5.3 °C 39.4 °F /  4.1 °C 30.30 in /  1026 hPa NNE 6.0 mph /  9.7 km/h 10.0 mph /  16.1 km/h 92 % 0.00 in /  0 mm 7 W/m2
05:39 41.5 °F /  5.3 °C 39.4 °F /  4.1 °C 30.30 in /  1026 hPa NNE 6.0 mph /  9.7 km/h 12.0 mph /  19.3 km/h 92 % 0.00 in /  0 mm 9 W/m2
05:44 41.5 °F /  5.3 °C 39.4 °F /  4.1 °C 30.31 in /  1026.3 hPa NNE 7.0 mph /  11.3 km/h 12.0 mph /  19.3 km/h 92 % 0.00 in /  0 mm 12 W/m2
05:49 41.5 °F /  5.3 °C 39.4 °F /  4.1 °C 30.31 in /  1026.3 hPa NNE 7.0 mph /  11.3 km/h 13.0 mph /  20.9 km/h 92 % 0.00 in /  0 mm 14 W/m2
05:54 41.7 °F /  5.4 °C 39.6 °F /  4.2 °C 30.31 in /  1026.3 hPa NNE 7.0 mph /  11.3 km/h 14.0 mph /  22.5 km/h 92 % 0.00 in /  0 mm 16 W/m2
05:59 41.7 °F /  5.4 °C 39.6 °F /  4.2 °C 30.31 in /  1026.3 hPa NNE 7.0 mph /  11.3 km/h 14.0 mph /  22.5 km/h 92 % 0.00 in /  0 mm 18 W/m2
06:04 41.7 °F /  5.4 °C 39.6 °F /  4.2 °C 30.31 in /  1026.3 hPa NNE 7.0 mph /  11.3 km/h 14.0 mph /  22.5 km/h 92 % 0.00 in /  0 mm 21 W/m2
06:09 41.7 °F /  5.4 °C 39.6 °F /  4.2 °C 30.31 in /  1026.3 hPa NNE 7.0 mph /  11.3 km/h 14.0 mph /  22.5 km/h 92 % 0.00 in /  0 mm 23 W/m2
06:14 41.9 °F /  5.5 °C 39.7 °F /  4.3 °C 30.31 in /  1026.3 hPa NNE 7.0 mph /  11.3 km/h 14.0 mph /  22.5 km/h 92 % 0.00 in /  0 mm 25 W/m2
06:19 42.1 °F /  5.6 °C 39.9 °F /  4.4 °C 30.31 in /  1026.3 hPa NNE 8.0 mph /  12.9 km/h 14.0 mph /  22.5 km/h 92 % 0.00 in /  0 mm 56 W/m2
06:24 42.3 °F /  5.7 °C 40.1 °F /  4.5 °C 30.31 in /  1026.3 hPa NNE 7.0 mph /  11.3 km/h 14.0 mph /  22.5 km/h 92 % 0.00 in /  0 mm 81 W/m2
06:29 42.4 °F /  5.8 °C 40.0 °F /  4.4 °C 30.31 in /  1026.3 hPa NNE 8.0 mph /  12.9 km/h 14.0 mph /  22.5 km/h 91 % 0.00 in /  0 mm 91 W/m2
06:34 42.6 °F /  5.9 °C 40.2 °F /  4.6 °C 30.31 in /  1026.3 hPa NNE 8.0 mph /  12.9 km/h 14.0 mph /  22.5 km/h 91 % 0.00 in /  0 mm 100 W/m2
06:39 43.0 °F /  6.1 °C 40.5 °F /  4.7 °C 30.31 in /  1026.3 hPa NNE 7.0 mph /  11.3 km/h 12.0 mph /  19.3 km/h 91 % 0.00 in /  0 mm 109 W/m2
06:44 43.2 °F /  6.2 °C 40.4 °F /  4.7 °C 30.31 in /  1026.3 hPa NNE 6.0 mph /  9.7 km/h 14.0 mph /  22.5 km/h 90 % 0.00 in /  0 mm 120 W/m2
06:49 43.3 °F /  6.3 °C 40.6 °F /  4.8 °C 30.31 in /  1026.3 hPa NNE 6.0 mph /  9.7 km/h 14.0 mph /  22.5 km/h 90 % 0.00 in /  0 mm 128 W/m2
06:54 43.5 °F /  6.4 °C 40.8 °F /  4.9 °C 30.31 in /  1026.3 hPa NNE 6.0 mph /  9.7 km/h 11.0 mph /  17.7 km/h 90 % 0.00 in /  0 mm 104 W/m2
06:59 43.7 °F /  6.5 °C 41.0 °F /  5 °C 30.31 in /  1026.3 hPa NNE 6.0 mph /  9.7 km/h 15.0 mph /  24.1 km/h 90 % 0.00 in /  0 mm 158 W/m2
07:04 43.9 °F /  6.6 °C 41.1 °F /  5.1 °C 30.31 in /  1026.3 hPa NNE 7.0 mph /  11.3 km/h 15.0 mph /  24.1 km/h 90 % 0.00 in /  0 mm 172 W/m2
07:09 44.2 °F /  6.8 °C 41.5 °F /  5.3 °C 30.31 in /  1026.3 hPa NNE 7.0 mph /  11.3 km/h 13.0 mph /  20.9 km/h 90 % 0.00 in /  0 mm 188 W/m2
07:14 44.6 °F /  7 °C 41.6 °F /  5.3 °C 30.31 in /  1026.3 hPa NNE 7.0 mph /  11.3 km/h 13.0 mph /  20.9 km/h 89 % 0.00 in /  0 mm 199 W/m2
07:19 45.0 °F /  7.2 °C 41.6 °F /  5.3 °C 30.31 in /  1026.3 hPa NNE 6.0 mph /  9.7 km/h 15.0 mph /  24.1 km/h 88 % 0.00 in /  0 mm 209 W/m2
07:24 45.3 °F /  7.4 °C 41.7 °F /  5.4 °C 30.31 in /  1026.3 hPa NNE 7.0 mph /  11.3 km/h 16.0 mph /  25.7 km/h 87 % 0.00 in /  0 mm 225 W/m2
07:29 45.7 °F /  7.6 °C 41.7 °F /  5.4 °C 30.31 in /  1026.3 hPa NNE 8.0 mph /  12.9 km/h 16.0 mph /  25.7 km/h 86 % 0.00 in /  0 mm 237 W/m2
07:34 46.0 °F /  7.8 °C 42.1 °F /  5.6 °C 30.32 in /  1026.6 hPa NNE 8.0 mph /  12.9 km/h 14.0 mph /  22.5 km/h 86 % 0.00 in /  0 mm 250 W/m2
07:39 46.4 °F /  8 °C 42.1 °F /  5.6 °C 30.32 in /  1026.6 hPa NNE 7.0 mph /  11.3 km/h 13.0 mph /  20.9 km/h 85 % 0.00 in /  0 mm 264 W/m2
07:45 46.8 °F /  8.2 °C 42.2 °F /  5.7 °C 30.32 in /  1026.6 hPa NNE 7.0 mph /  11.3 km/h 13.0 mph /  20.9 km/h 84 % 0.00 in /  0 mm 278 W/m2
07:50 47.1 °F /  8.4 °C 42.5 °F /  5.8 °C 30.32 in /  1026.6 hPa NNE 6.0 mph /  9.7 km/h 13.0 mph /  20.9 km/h 84 % 0.00 in /  0 mm 290 W/m2
07:55 47.3 °F /  8.5 °C 42.4 °F /  5.8 °C 30.32 in /  1026.6 hPa NNE 7.0 mph /  11.3 km/h 15.0 mph /  24.1 km/h 83 % 0.00 in /  0 mm 306 W/m2
07:59 47.7 °F /  8.7 °C 42.8 °F /  6 °C 30.32 in /  1026.6 hPa NNE 8.0 mph /  12.9 km/h 15.0 mph /  24.1 km/h 83 % 0.00 in /  0 mm 318 W/m2
08:00 47.7 °F /  8.7 °C 42.8 °F /  6 °C 30.32 in /  1026.6 hPa NNE 7.0 mph /  11.3 km/h 15.0 mph /  24.1 km/h 83 % 0.00 in /  0 mm 322 W/m2
08:05 47.8 °F /  8.8 °C 42.9 °F /  6.1 °C 30.32 in /  1026.6 hPa NNE 6.0 mph /  9.7 km/h 14.0 mph /  22.5 km/h 83 % 0.00 in /  0 mm 341 W/m2
08:10 48.4 °F /  9.1 °C 42.8 °F /  6 °C 30.32 in /  1026.6 hPa NNE 7.0 mph /  11.3 km/h 13.0 mph /  20.9 km/h 81 % 0.00 in /  0 mm 352 W/m2
08:15 48.6 °F /  9.2 °C 43.0 °F /  6.1 °C 30.32 in /  1026.6 hPa NNE 7.0 mph /  11.3 km/h 13.0 mph /  20.9 km/h 81 % 0.00 in /  0 mm 366 W/m2
08:21 48.9 °F /  9.4 °C 43.0 °F /  6.1 °C 30.32 in /  1026.6 hPa NNE 6.0 mph /  9.7 km/h 13.0 mph /  20.9 km/h 80 % 0.00 in /  0 mm 383 W/m2
08:26 49.3 °F /  9.6 °C 43.0 °F /  6.1 °C 30.32 in /  1026.6 hPa NNE 8.0 mph /  12.9 km/h 14.0 mph /  22.5 km/h 79 % 0.00 in /  0 mm 399 W/m2
08:31 49.6 °F /  9.8 °C 43.1 °F /  6.2 °C 30.32 in /  1026.6 hPa NNE 8.0 mph /  12.9 km/h 15.0 mph /  24.1 km/h 78 % 0.00 in /  0 mm 413 W/m2
08:36 50.0 °F /  10 °C 43.1 °F /  6.2 °C 30.32 in /  1026.6 hPa NNE 8.0 mph /  12.9 km/h 18.0 mph /  29 km/h 77 % 0.00 in /  0 mm 427 W/m2
08:41 50.4 °F /  10.2 °C 43.1 °F /  6.2 °C 30.32 in /  1026.6 hPa NE 7.0 mph /  11.3 km/h 18.0 mph /  29 km/h 76 % 0.00 in /  0 mm 434 W/m2
08:46 50.9 °F /  10.5 °C 43.3 °F /  6.3 °C 30.32 in /  1026.6 hPa NE 6.0 mph /  9.7 km/h 12.0 mph /  19.3 km/h 75 % 0.00 in /  0 mm 455 W/m2
08:51 51.4 °F /  10.8 °C 42.7 °F /  5.9 °C 30.32 in /  1026.6 hPa NE 6.0 mph /  9.7 km/h 12.0 mph /  19.3 km/h 72 % 0.00 in /  0 mm 469 W/m2
08:56 52.0 °F /  11.1 °C 42.9 °F /  6.1 °C 30.32 in /  1026.6 hPa NE 6.0 mph /  9.7 km/h 15.0 mph /  24.1 km/h 71 % 0.00 in /  0 mm 483 W/m2
09:02 52.3 °F /  11.3 °C 42.1 °F /  5.6 °C 30.32 in /  1026.6 hPa NE 8.0 mph /  12.9 km/h 20.0 mph /  32.2 km/h 68 % 0.00 in /  0 mm 494 W/m2
09:07 52.2 °F /  11.2 °C 42.3 °F /  5.7 °C 30.31 in /  1026.3 hPa NE 10.0 mph /  16.1 km/h 20.0 mph /  32.2 km/h 69 % 0.00 in /  0 mm 512 W/m2
09:12 52.3 °F /  11.3 °C 42.5 °F /  5.8 °C 30.31 in /  1026.3 hPa NE 9.0 mph /  14.5 km/h 18.0 mph /  29 km/h 69 % 0.00 in /  0 mm 524 W/m2
09:17 52.5 °F /  11.4 °C 42.6 °F /  5.9 °C 30.32 in /  1026.6 hPa NE 9.0 mph /  14.5 km/h 18.0 mph /  29 km/h 69 % 0.00 in /  0 mm 540 W/m2
09:22 52.9 °F /  11.6 °C 42.6 °F /  5.9 °C 30.32 in /  1026.6 hPa NE 9.0 mph /  14.5 km/h 18.0 mph /  29 km/h 68 % 0.00 in /  0 mm 545 W/m2
09:27 53.2 °F /  11.8 °C 42.6 °F /  5.9 °C 30.31 in /  1026.3 hPa NE 7.0 mph /  11.3 km/h 18.0 mph /  29 km/h 67 % 0.00 in /  0 mm 552 W/m2
09:32 53.4 °F /  11.9 °C 42.7 °F /  5.9 °C 30.31 in /  1026.3 hPa NE 8.0 mph /  12.9 km/h 19.0 mph /  30.6 km/h 67 % 0.00 in /  0 mm 573 W/m2
09:37 53.6 °F /  12 °C 42.5 °F /  5.8 °C 30.31 in /  1026.3 hPa NE 9.0 mph /  14.5 km/h 19.0 mph /  30.6 km/h 66 % 0.00 in /  0 mm 589 W/m2
09:42 54.0 °F /  12.2 °C 42.1 °F /  5.6 °C 30.31 in /  1026.3 hPa ENE 9.0 mph /  14.5 km/h 19.0 mph /  30.6 km/h 64 % 0.00 in /  0 mm 589 W/m2
09:47 54.1 °F /  12.3 °C 42.2 °F /  5.7 °C 30.31 in /  1026.3 hPa NE 10.0 mph /  16.1 km/h 21.0 mph /  33.8 km/h 64 % 0.00 in /  0 mm 613 W/m2
09:52 54.1 °F /  12.3 °C 41.4 °F /  5.2 °C 30.31 in /  1026.3 hPa NE 11.0 mph /  17.7 km/h 23.0 mph /  37 km/h 62 % 0.00 in /  0 mm 619 W/m2
09:57 54.7 °F /  12.6 °C 41.1 °F /  5.1 °C 30.31 in /  1026.3 hPa ENE 11.0 mph /  17.7 km/h 23.0 mph /  37 km/h 60 % 0.00 in /  0 mm 629 W/m2
10:02 55.0 °F /  12.8 °C 41.8 °F /  5.4 °C 30.31 in /  1026.3 hPa ENE 9.0 mph /  14.5 km/h 19.0 mph /  30.6 km/h 61 % 0.00 in /  0 mm 645 W/m2
10:07 55.6 °F /  13.1 °C 41.5 °F /  5.3 °C 30.31 in /  1026.3 hPa ENE 8.0 mph /  12.9 km/h 20.0 mph /  32.2 km/h 59 % 0.00 in /  0 mm 656 W/m2
10:12 55.6 °F /  13.1 °C 41.5 °F /  5.3 °C 30.31 in /  1026.3 hPa NE 9.0 mph /  14.5 km/h 20.0 mph /  32.2 km/h 59 % 0.00 in /  0 mm 670 W/m2
10:17 55.6 °F /  13.1 °C 41.5 °F /  5.3 °C 30.31 in /  1026.3 hPa NE 10.0 mph /  16.1 km/h 20.0 mph /  32.2 km/h 59 % 0.00 in /  0 mm 694 W/m2
10:22 55.8 °F /  13.2 °C 41.2 °F /  5.1 °C 30.31 in /  1026.3 hPa NE 10.0 mph /  16.1 km/h 20.0 mph /  32.2 km/h 58 % 0.00 in /  0 mm 691 W/m2
10:27 55.6 °F /  13.1 °C 41.0 °F /  5 °C 30.31 in /  1026.3 hPa NE 11.0 mph /  17.7 km/h 24.0 mph /  38.6 km/h 58 % 0.00 in /  0 mm 353 W/m2
10:32 55.6 °F /  13.1 °C 41.9 °F /  5.5 °C 30.30 in /  1026 hPa NE 10.0 mph /  16.1 km/h 24.0 mph /  38.6 km/h 60 % 0.00 in /  0 mm 768 W/m2
10:33 55.6 °F /  13.1 °C 41.9 °F /  5.5 °C 30.30 in /  1026 hPa NE 10.0 mph /  16.1 km/h 21.0 mph /  33.8 km/h 60 % 0.00 in /  0 mm 768 W/m2
10:38 55.8 °F /  13.2 °C 41.2 °F /  5.1 °C 30.30 in /  1026 hPa NE 10.0 mph /  16.1 km/h 21.0 mph /  33.8 km/h 58 % 0.00 in /  0 mm 306 W/m2
10:43 55.9 °F /  13.3 °C 40.9 °F /  4.9 °C 30.30 in /  1026 hPa NE 11.0 mph /  17.7 km/h 20.0 mph /  32.2 km/h 57 % 0.00 in /  0 mm 527 W/m2
10:48 56.1 °F /  13.4 °C 41.1 °F /  5.1 °C 30.30 in /  1026 hPa NE 11.0 mph /  17.7 km/h 20.0 mph /  32.2 km/h 57 % 0.00 in /  0 mm 462 W/m2
10:53 55.9 °F /  13.3 °C 40.5 °F /  4.7 °C 30.30 in /  1026 hPa NE 10.0 mph /  16.1 km/h 20.0 mph /  32.2 km/h 56 % 0.00 in /  0 mm 352 W/m2
10:58 55.9 °F /  13.3 °C 40.0 °F /  4.4 °C 30.30 in /  1026 hPa NE 10.0 mph /  16.1 km/h 20.0 mph /  32.2 km/h 55 % 0.00 in /  0 mm 478 W/m2
11:03 56.1 °F /  13.4 °C 41.1 °F /  5.1 °C 30.30 in /  1026 hPa NE 10.0 mph /  16.1 km/h 21.0 mph /  33.8 km/h 57 % 0.00 in /  0 mm 1000 W/m2
11:08 57.0 °F /  13.9 °C 42.4 °F /  5.8 °C 30.30 in /  1026 hPa ENE 9.0 mph /  14.5 km/h 21.0 mph /  33.8 km/h 58 % 0.00 in /  0 mm 979 W/m2
11:13 57.6 °F /  14.2 °C 40.1 °F /  4.5 °C 30.30 in /  1026 hPa ENE 10.0 mph /  16.1 km/h 26.0 mph /  41.8 km/h 52 % 0.00 in /  0 mm 979 W/m2
11:18 57.2 °F /  14 °C 40.7 °F /  4.8 °C 30.30 in /  1026 hPa ENE 10.0 mph /  16.1 km/h 26.0 mph /  41.8 km/h 54 % 0.00 in /  0 mm 606 W/m2
11:23 57.4 °F /  14.1 °C 40.9 °F /  4.9 °C 30.30 in /  1026 hPa ENE 10.0 mph /  16.1 km/h 21.0 mph /  33.8 km/h 54 % 0.00 in /  0 mm 531 W/m2
11:28 57.4 °F /  14.1 °C 40.4 °F /  4.7 °C 30.30 in /  1026 hPa NE 10.0 mph /  16.1 km/h 21.0 mph /  33.8 km/h 53 % 0.00 in /  0 mm 448 W/m2
11:33 57.4 °F /  14.1 °C 40.4 °F /  4.7 °C 30.30 in /  1026 hPa ENE 10.0 mph /  16.1 km/h 21.0 mph /  33.8 km/h 53 % 0.00 in /  0 mm 417 W/m2
11:38 57.4 °F /  14.1 °C 39.9 °F /  4.4 °C 30.30 in /  1026 hPa ENE 10.0 mph /  16.1 km/h 18.0 mph /  29 km/h 52 % 0.00 in /  0 mm 949 W/m2
11:43 57.9 °F /  14.4 °C 38.9 °F /  3.8 °C 30.30 in /  1026 hPa ENE 9.0 mph /  14.5 km/h 19.0 mph /  30.6 km/h 49 % 0.00 in /  0 mm 970 W/m2
11:48 57.9 °F /  14.4 °C 39.4 °F /  4.1 °C 30.30 in /  1026 hPa ENE 10.0 mph /  16.1 km/h 20.0 mph /  32.2 km/h 50 % 0.00 in /  0 mm 960 W/m2
11:53 58.6 °F /  14.8 °C 40.6 °F /  4.8 °C 30.30 in /  1026 hPa ENE 9.0 mph /  14.5 km/h 20.0 mph /  32.2 km/h 51 % 0.00 in /  0 mm 406 W/m2
11:58 58.3 °F /  14.6 °C 38.7 °F /  3.7 °C 30.30 in /  1026 hPa ENE 10.0 mph /  16.1 km/h 18.0 mph /  29 km/h 48 % 0.00 in /  0 mm 418 W/m2
12:03 57.6 °F /  14.2 °C 38.5 °F /  3.6 °C 30.30 in /  1026 hPa ENE 10.0 mph /  16.1 km/h 18.0 mph /  29 km/h 49 % 0.00 in /  0 mm 357 W/m2
12:08 57.4 °F /  14.1 °C 39.4 °F /  4.1 °C 30.30 in /  1026 hPa ENE 9.0 mph /  14.5 km/h 19.0 mph /  30.6 km/h 51 % 0.00 in /  0 mm 436 W/m2
12:13 57.4 °F /  14.1 °C 38.4 °F /  3.6 °C 30.30 in /  1026 hPa ENE 11.0 mph /  17.7 km/h 25.0 mph /  40.2 km/h 49 % 0.00 in /  0 mm 489 W/m2
12:18 57.4 °F /  14.1 °C 38.4 °F /  3.6 °C 30.30 in /  1026 hPa ENE 13.0 mph /  20.9 km/h 25.0 mph /  40.2 km/h 49 % 0.00 in /  0 mm 649 W/m2
12:19 57.4 °F /  14.1 °C 38.4 °F /  3.6 °C 30.30 in /  1026 hPa ENE 13.0 mph /  20.9 km/h 25.0 mph /  40.2 km/h 49 % 0.00 in /  0 mm 649 W/m2
12:23 57.4 °F /  14.1 °C 38.9 °F /  3.8 °C 30.30 in /  1026 hPa ENE 11.0 mph /  17.7 km/h 22.0 mph /  35.4 km/h 50 % 0.00 in /  0 mm 552 W/m2
12:29 57.6 °F /  14.2 °C 38.0 °F /  3.3 °C 30.30 in /  1026 hPa ENE 9.0 mph /  14.5 km/h 19.0 mph /  30.6 km/h 48 % 0.00 in /  0 mm 513 W/m2
12:34 57.7 °F /  14.3 °C 38.2 °F /  3.4 °C 30.29 in /  1025.6 hPa ENE 9.0 mph /  14.5 km/h 18.0 mph /  29 km/h 48 % 0.00 in /  0 mm 599 W/m2
12:39 57.7 °F /  14.3 °C 37.6 °F /  3.1 °C 30.30 in /  1026 hPa ENE 10.0 mph /  16.1 km/h 21.0 mph /  33.8 km/h 47 % 0.00 in /  0 mm 559 W/m2
12:44 57.4 °F /  14.1 °C 36.8 °F /  2.7 °C 30.29 in /  1025.6 hPa ENE 11.0 mph /  17.7 km/h 21.0 mph /  33.8 km/h 46 % 0.00 in /  0 mm 436 W/m2
12:49 57.6 °F /  14.2 °C 36.9 °F /  2.7 °C 30.30 in /  1026 hPa ENE 11.0 mph /  17.7 km/h 22.0 mph /  35.4 km/h 46 % 0.00 in /  0 mm 503 W/m2
12:54 57.7 °F /  14.3 °C 37.1 °F /  2.8 °C 30.30 in /  1026 hPa ENE 11.0 mph /  17.7 km/h 22.0 mph /  35.4 km/h 46 % 0.00 in /  0 mm 450 W/m2
12:59 57.6 °F /  14.2 °C 37.5 °F /  3.1 °C 30.29 in /  1025.6 hPa ENE 10.0 mph /  16.1 km/h 20.0 mph /  32.2 km/h 47 % 0.00 in /  0 mm 589 W/m2
13:04 57.7 °F /  14.3 °C 37.6 °F /  3.1 °C 30.29 in /  1025.6 hPa ENE 9.0 mph /  14.5 km/h 21.0 mph /  33.8 km/h 47 % 0.00 in /  0 mm 599 W/m2
13:09 57.7 °F /  14.3 °C 37.6 °F /  3.1 °C 30.29 in /  1025.6 hPa ENE 9.0 mph /  14.5 km/h 21.0 mph /  33.8 km/h 47 % 0.00 in /  0 mm 570 W/m2
13:14 57.6 °F /  14.2 °C 36.9 °F /  2.7 °C 30.29 in /  1025.6 hPa ENE 10.0 mph /  16.1 km/h 21.0 mph /  33.8 km/h 46 % 0.00 in /  0 mm 512 W/m2
13:19 57.6 °F /  14.2 °C 36.9 °F /  2.7 °C 30.29 in /  1025.6 hPa NE 9.0 mph /  14.5 km/h 24.0 mph /  38.6 km/h 46 % 0.00 in /  0 mm 362 W/m2
13:24 57.7 °F /  14.3 °C 38.2 °F /  3.4 °C 30.29 in /  1025.6 hPa ENE 8.0 mph /  12.9 km/h 24.0 mph /  38.6 km/h 48 % 0.00 in /  0 mm 710 W/m2
13:29 58.3 °F /  14.6 °C 38.1 °F /  3.4 °C 30.29 in /  1025.6 hPa ENE 9.0 mph /  14.5 km/h 19.0 mph /  30.6 km/h 47 % 0.00 in /  0 mm 710 W/m2
13:34 58.3 °F /  14.6 °C 37.0 °F /  2.8 °C 30.29 in /  1025.6 hPa ENE 10.0 mph /  16.1 km/h 19.0 mph /  30.6 km/h 45 % 0.00 in /  0 mm 1039 W/m2
13:39 59.0 °F /  15 °C 37.1 °F /  2.8 °C 30.29 in /  1025.6 hPa ENE 10.0 mph /  16.1 km/h 19.0 mph /  30.6 km/h 44 % 0.00 in /  0 mm 1116 W/m2
13:44 59.4 °F /  15.2 °C 36.8 °F /  2.7 °C 30.29 in /  1025.6 hPa ENE 10.0 mph /  16.1 km/h 19.0 mph /  30.6 km/h 43 % 0.00 in /  0 mm 1204 W/m2
13:49 59.2 °F /  15.1 °C 36.7 °F /  2.6 °C 30.28 in /  1025.3 hPa ENE 10.0 mph /  16.1 km/h 18.0 mph /  29 km/h 43 % 0.00 in /  0 mm 482 W/m2
13:54 59.2 °F /  15.1 °C 36.7 °F /  2.6 °C 30.28 in /  1025.3 hPa ENE 10.0 mph /  16.1 km/h 24.0 mph /  38.6 km/h 43 % 0.00 in /  0 mm 482 W/m2
13:59 59.0 °F /  15 °C 36.5 °F /  2.5 °C 30.29 in /  1025.6 hPa ENE 10.0 mph /  16.1 km/h 24.0 mph /  38.6 km/h 43 % 0.00 in /  0 mm 388 W/m2
14:04 59.0 °F /  15 °C 35.3 °F /  1.8 °C 30.29 in /  1025.6 hPa ENE 10.0 mph /  16.1 km/h 23.0 mph /  37 km/h 41 % 0.00 in /  0 mm 575 W/m2
14:09 58.6 °F /  14.8 °C 35.0 °F /  1.7 °C 30.28 in /  1025.3 hPa ENE 10.0 mph /  16.1 km/h 23.0 mph /  37 km/h 41 % 0.00 in /  0 mm 367 W/m2
14:14 58.6 °F /  14.8 °C 35.0 °F /  1.7 °C 30.29 in /  1025.6 hPa ENE 10.0 mph /  16.1 km/h 21.0 mph /  33.8 km/h 41 % 0.00 in /  0 mm 1004 W/m2
14:15 58.6 °F /  14.8 °C 35.0 °F /  1.7 °C 30.28 in /  1025.3 hPa ENE 9.0 mph /  14.5 km/h 21.0 mph /  33.8 km/h 41 % 0.00 in /  0 mm 942 W/m2
14:20 59.0 °F /  15 °C 35.3 °F /  1.8 °C 30.28 in /  1025.3 hPa ENE 10.0 mph /  16.1 km/h 20.0 mph /  32.2 km/h 41 % 0.00 in /  0 mm 933 W/m2
14:25 59.4 °F /  15.2 °C 35.0 °F /  1.7 °C 30.28 in /  1025.3 hPa East 10.0 mph /  16.1 km/h 20.0 mph /  32.2 km/h 40 % 0.00 in /  0 mm 360 W/m2
14:30 59.5 °F /  15.3 °C 36.4 °F /  2.4 °C 30.28 in /  1025.3 hPa East 7.0 mph /  11.3 km/h 18.0 mph /  29 km/h 42 % 0.00 in /  0 mm 327 W/m2
14:35 59.2 °F /  15.1 °C 37.8 °F /  3.2 °C 30.29 in /  1025.6 hPa ENE 7.0 mph /  11.3 km/h 15.0 mph /  24.1 km/h 45 % 0.00 in /  0 mm 285 W/m2
14:40 58.6 °F /  14.8 °C 37.3 °F /  2.9 °C 30.29 in /  1025.6 hPa ENE 8.0 mph /  12.9 km/h 18.0 mph /  29 km/h 45 % 0.00 in /  0 mm 200 W/m2
14:45 57.7 °F /  14.3 °C 38.2 °F /  3.4 °C 30.28 in /  1025.3 hPa ENE 8.0 mph /  12.9 km/h 20.0 mph /  32.2 km/h 48 % 0.00 in /  0 mm 271 W/m2
14:50 57.6 °F /  14.2 °C 38.5 °F /  3.6 °C 30.29 in /  1025.6 hPa ENE 7.0 mph /  11.3 km/h 20.0 mph /  32.2 km/h 49 % 0.00 in /  0 mm 214 W/m2
14:55 57.4 °F /  14.1 °C 37.8 °F /  3.2 °C 30.28 in /  1025.3 hPa ENE 7.0 mph /  11.3 km/h 15.0 mph /  24.1 km/h 48 % 0.00 in /  0 mm 250 W/m2
15:00 57.0 °F /  13.9 °C 38.5 °F /  3.6 °C 30.28 in /  1025.3 hPa ENE 8.0 mph /  12.9 km/h 15.0 mph /  24.1 km/h 50 % 0.00 in /  0 mm 258 W/m2
15:05 56.8 °F /  13.8 °C 38.4 °F /  3.6 °C 30.28 in /  1025.3 hPa ENE 6.0 mph /  9.7 km/h 13.0 mph /  20.9 km/h 50 % 0.00 in /  0 mm 225 W/m2
15:10 56.8 °F /  13.8 °C 38.4 °F /  3.6 °C 30.28 in /  1025.3 hPa ENE 6.0 mph /  9.7 km/h 13.0 mph /  20.9 km/h 50 % 0.00 in /  0 mm 181 W/m2
15:15 56.8 °F /  13.8 °C 38.9 °F /  3.8 °C 30.28 in /  1025.3 hPa ENE 7.0 mph /  11.3 km/h 18.0 mph /  29 km/h 51 % 0.00 in /  0 mm 165 W/m2
15:20 56.5 °F /  13.6 °C 39.5 °F /  4.2 °C 30.28 in /  1025.3 hPa ENE 9.0 mph /  14.5 km/h 19.0 mph /  30.6 km/h 53 % 0.00 in /  0 mm 174 W/m2
15:25 56.1 °F /  13.4 °C 39.7 °F /  4.3 °C 30.28 in /  1025.3 hPa ENE 9.0 mph /  14.5 km/h 19.0 mph /  30.6 km/h 54 % 0.00 in /  0 mm 188 W/m2
15:30 55.9 °F /  13.3 °C 40.5 °F /  4.7 °C 30.29 in /  1025.6 hPa ENE 9.0 mph /  14.5 km/h 18.0 mph /  29 km/h 56 % 0.00 in /  0 mm 262 W/m2
15:36 55.9 °F /  13.3 °C 40.9 °F /  4.9 °C 30.28 in /  1025.3 hPa ENE 10.0 mph /  16.1 km/h 18.0 mph /  29 km/h 57 % 0.00 in /  0 mm 360 W/m2
15:41 56.1 °F /  13.4 °C 41.5 °F /  5.3 °C 30.28 in /  1025.3 hPa ENE 9.0 mph /  14.5 km/h 22.0 mph /  35.4 km/h 58 % 0.00 in /  0 mm 290 W/m2
15:46 56.3 °F /  13.5 °C 42.1 °F /  5.6 °C 30.28 in /  1025.3 hPa NE 9.0 mph /  14.5 km/h 22.0 mph /  35.4 km/h 59 % 0.00 in /  0 mm 322 W/m2
15:51 56.5 °F /  13.6 °C 42.8 °F /  6 °C 30.28 in /  1025.3 hPa ENE 8.0 mph /  12.9 km/h 16.0 mph /  25.7 km/h 60 % 0.00 in /  0 mm 352 W/m2
15:56 56.8 °F /  13.8 °C 43.1 °F /  6.2 °C 30.28 in /  1025.3 hPa ENE 9.0 mph /  14.5 km/h 18.0 mph /  29 km/h 60 % 0.00 in /  0 mm 450 W/m2
16:01 56.8 °F /  13.8 °C 43.1 °F /  6.2 °C 30.28 in /  1025.3 hPa ENE 9.0 mph /  14.5 km/h 18.0 mph /  29 km/h 60 % 0.00 in /  0 mm 236 W/m2
16:06 56.7 °F /  13.7 °C 43.4 °F /  6.3 °C 30.28 in /  1025.3 hPa NE 9.0 mph /  14.5 km/h 19.0 mph /  30.6 km/h 61 % 0.00 in /  0 mm 257 W/m2
16:11 56.1 °F /  13.4 °C 43.3 °F /  6.3 °C 30.28 in /  1025.3 hPa NE 10.0 mph /  16.1 km/h 22.0 mph /  35.4 km/h 62 % 0.00 in /  0 mm 213 W/m2
16:16 55.8 °F /  13.2 °C 43.8 °F /  6.6 °C 30.28 in /  1025.3 hPa NE 10.0 mph /  16.1 km/h 22.0 mph /  35.4 km/h 64 % 0.00 in /  0 mm 258 W/m2
16:21 55.6 °F /  13.1 °C 44.0 °F /  6.7 °C 30.28 in /  1025.3 hPa ENE 9.0 mph /  14.5 km/h 18.0 mph /  29 km/h 65 % 0.00 in /  0 mm 243 W/m2
16:26 55.4 °F /  13 °C 43.8 °F /  6.6 °C 30.28 in /  1025.3 hPa ENE 9.0 mph /  14.5 km/h 18.0 mph /  29 km/h 65 % 0.00 in /  0 mm 202 W/m2
16:31 55.2 °F /  12.9 °C 43.7 °F /  6.5 °C 30.28 in /  1025.3 hPa ENE 9.0 mph /  14.5 km/h 18.0 mph /  29 km/h 65 % 0.00 in /  0 mm 229 W/m2
16:36 54.9 °F /  12.7 °C 43.7 °F /  6.5 °C 30.28 in /  1025.3 hPa ENE 10.0 mph /  16.1 km/h 18.0 mph /  29 km/h 66 % 0.00 in /  0 mm 165 W/m2
16:41 54.9 °F /  12.7 °C 44.1 °F /  6.7 °C 30.28 in /  1025.3 hPa ENE 8.0 mph /  12.9 km/h 16.0 mph /  25.7 km/h 67 % 0.00 in /  0 mm 213 W/m2
16:46 54.7 °F /  12.6 °C 43.9 °F /  6.6 °C 30.28 in /  1025.3 hPa ENE 8.0 mph /  12.9 km/h 19.0 mph /  30.6 km/h 67 % 0.00 in /  0 mm 237 W/m2
16:51 54.7 °F /  12.6 °C 43.9 °F /  6.6 °C 30.28 in /  1025.3 hPa ENE 9.0 mph /  14.5 km/h 21.0 mph /  33.8 km/h 67 % 0.00 in /  0 mm 199 W/m2
16:56 54.7 °F /  12.6 °C 44.3 °F /  6.8 °C 30.28 in /  1025.3 hPa ENE 9.0 mph /  14.5 km/h 21.0 mph /  33.8 km/h 68 % 0.00 in /  0 mm 237 W/m2
17:01 54.7 °F /  12.6 °C 44.3 °F /  6.8 °C 30.28 in /  1025.3 hPa ENE 8.0 mph /  12.9 km/h 18.0 mph /  29 km/h 68 % 0.00 in /  0 mm 134 W/m2
17:06 54.7 °F /  12.6 °C 44.3 °F /  6.8 °C 30.28 in /  1025.3 hPa ENE 8.0 mph /  12.9 km/h 14.0 mph /  22.5 km/h 68 % 0.00 in /  0 mm 202 W/m2
17:11 54.7 °F /  12.6 °C 44.7 °F /  7.1 °C 30.28 in /  1025.3 hPa ENE 8.0 mph /  12.9 km/h 15.0 mph /  24.1 km/h 69 % 0.00 in /  0 mm 120 W/m2
17:16 54.5 °F /  12.5 °C 44.5 °F /  6.9 °C 30.28 in /  1025.3 hPa ENE 8.0 mph /  12.9 km/h 18.0 mph /  29 km/h 69 % 0.00 in /  0 mm 88 W/m2
17:19 54.5 °F /  12.5 °C 44.5 °F /  6.9 °C 30.28 in /  1025.3 hPa ENE 9.0 mph /  14.5 km/h 18.0 mph /  29 km/h 69 % 0.00 in /  0 mm 125 W/m2
17:21 54.3 °F /  12.4 °C 44.4 °F /  6.9 °C 30.29 in /  1025.6 hPa ENE 9.0 mph /  14.5 km/h 18.0 mph /  29 km/h 69 % 0.00 in /  0 mm 123 W/m2
17:26 54.3 °F /  12.4 °C 44.7 °F /  7.1 °C 30.28 in /  1025.3 hPa ENE 8.0 mph /  12.9 km/h 18.0 mph /  29 km/h 70 % 0.00 in /  0 mm 105 W/m2
17:31 54.3 °F /  12.4 °C 44.7 °F /  7.1 °C 30.29 in /  1025.6 hPa ENE 6.0 mph /  9.7 km/h 13.0 mph /  20.9 km/h 70 % 0.00 in /  0 mm 63 W/m2
17:36 54.3 °F /  12.4 °C 44.7 °F /  7.1 °C 30.29 in /  1025.6 hPa ENE 6.0 mph /  9.7 km/h 13.0 mph /  20.9 km/h 70 % 0.00 in /  0 mm 93 W/m2
17:41 54.0 °F /  12.2 °C 44.8 °F /  7.1 °C 30.29 in /  1025.6 hPa ENE 8.0 mph /  12.9 km/h 14.0 mph /  22.5 km/h 71 % 0.00 in /  0 mm 72 W/m2
17:46 54.0 °F /  12.2 °C 44.8 °F /  7.1 °C 30.29 in /  1025.6 hPa ENE 8.0 mph /  12.9 km/h 16.0 mph /  25.7 km/h 71 % 0.00 in /  0 mm 97 W/m2
17:51 53.8 °F /  12.1 °C 45.0 °F /  7.2 °C 30.29 in /  1025.6 hPa ENE 8.0 mph /  12.9 km/h 16.0 mph /  25.7 km/h 72 % 0.00 in /  0 mm 74 W/m2
17:56 53.8 °F /  12.1 °C 45.0 °F /  7.2 °C 30.29 in /  1025.6 hPa ENE 8.0 mph /  12.9 km/h 15.0 mph /  24.1 km/h 72 % 0.00 in /  0 mm 153 W/m2
18:01 53.8 °F /  12.1 °C 45.0 °F /  7.2 °C 30.29 in /  1025.6 hPa ENE 8.0 mph /  12.9 km/h 20.0 mph /  32.2 km/h 72 % 0.00 in /  0 mm 155 W/m2
18:06 53.8 °F /  12.1 °C 44.6 °F /  7 °C 30.29 in /  1025.6 hPa NE 9.0 mph /  14.5 km/h 20.0 mph /  32.2 km/h 71 % 0.00 in /  0 mm 169 W/m2
18:11 53.8 °F /  12.1 °C 44.6 °F /  7 °C 30.29 in /  1025.6 hPa NE 9.0 mph /  14.5 km/h 20.0 mph /  32.2 km/h 71 % 0.00 in /  0 mm 90 W/m2
18:16 53.6 °F /  12 °C 44.4 °F /  6.9 °C 30.29 in /  1025.6 hPa ENE 9.0 mph /  14.5 km/h 20.0 mph /  32.2 km/h 71 % 0.00 in /  0 mm 70 W/m2
18:21 53.4 °F /  11.9 °C 44.6 °F /  7 °C 30.29 in /  1025.6 hPa NE 8.0 mph /  12.9 km/h 18.0 mph /  29 km/h 72 % 0.00 in /  0 mm 49 W/m2
18:26 53.2 °F /  11.8 °C 44.1 °F /  6.7 °C 30.29 in /  1025.6 hPa NE 8.0 mph /  12.9 km/h 21.0 mph /  33.8 km/h 71 % 0.00 in /  0 mm 42 W/m2
18:31 53.1 °F /  11.7 °C 44.3 °F /  6.8 °C 30.29 in /  1025.6 hPa ENE 9.0 mph /  14.5 km/h 21.0 mph /  33.8 km/h 72 % 0.00 in /  0 mm 60 W/m2
18:37 52.9 °F /  11.6 °C 44.1 °F /  6.7 °C 30.29 in /  1025.6 hPa ENE 9.0 mph /  14.5 km/h 16.0 mph /  25.7 km/h 72 % 0.00 in /  0 mm 67 W/m2
18:42 52.9 °F /  11.6 °C 44.1 °F /  6.7 °C 30.29 in /  1025.6 hPa ENE 9.0 mph /  14.5 km/h 18.0 mph /  29 km/h 72 % 0.00 in /  0 mm 58 W/m2
18:47 52.7 °F /  11.5 °C 44.3 °F /  6.8 °C 30.29 in /  1025.6 hPa NE 8.0 mph /  12.9 km/h 19.0 mph /  30.6 km/h 73 % 0.00 in /  0 mm 49 W/m2
18:52 52.7 °F /  11.5 °C 44.3 °F /  6.8 °C 30.29 in /  1025.6 hPa NE 9.0 mph /  14.5 km/h 19.0 mph /  30.6 km/h 73 % 0.00 in /  0 mm 42 W/m2
18:57 52.5 °F /  11.4 °C 44.1 °F /  6.7 °C 30.30 in /  1026 hPa ENE 8.0 mph /  12.9 km/h 16.0 mph /  25.7 km/h 73 % 0.00 in /  0 mm 37 W/m2
19:02 52.3 °F /  11.3 °C 43.9 °F /  6.6 °C 30.29 in /  1025.6 hPa ENE 7.0 mph /  11.3 km/h 19.0 mph /  30.6 km/h 73 % 0.00 in /  0 mm 30 W/m2
19:07 52.3 °F /  11.3 °C 44.3 °F /  6.8 °C 30.29 in /  1025.6 hPa ENE 8.0 mph /  12.9 km/h 19.0 mph /  30.6 km/h 74 % 0.00 in /  0 mm 30 W/m2
19:12 52.2 °F /  11.2 °C 44.1 °F /  6.7 °C 30.30 in /  1026 hPa ENE 8.0 mph /  12.9 km/h 15.0 mph /  24.1 km/h 74 % 0.00 in /  0 mm 25 W/m2
19:17 52.0 °F /  11.1 °C 43.9 °F /  6.6 °C 30.30 in /  1026 hPa ENE 7.0 mph /  11.3 km/h 15.0 mph /  24.1 km/h 74 % 0.00 in /  0 mm 19 W/m2
19:22 52.0 °F /  11.1 °C 43.9 °F /  6.6 °C 30.30 in /  1026 hPa ENE 7.0 mph /  11.3 km/h 18.0 mph /  29 km/h 74 % 0.00 in /  0 mm 18 W/m2
19:27 51.6 °F /  10.9 °C 44.0 °F /  6.7 °C 30.30 in /  1026 hPa ENE 7.0 mph /  11.3 km/h 18.0 mph /  29 km/h 75 % 0.00 in /  0 mm 12 W/m2
19:28 51.6 °F /  10.9 °C 44.0 °F /  6.7 °C 30.30 in /  1026 hPa ENE 7.0 mph /  11.3 km/h 18.0 mph /  29 km/h 75 % 0.00 in /  0 mm 14 W/m2
19:32 51.6 °F /  10.9 °C 44.0 °F /  6.7 °C 30.30 in /  1026 hPa ENE 7.0 mph /  11.3 km/h 16.0 mph /  25.7 km/h 75 % 0.00 in /  0 mm 12 W/m2
19:37 51.4 °F /  10.8 °C 43.8 °F /  6.6 °C 30.30 in /  1026 hPa ENE 8.0 mph /  12.9 km/h 16.0 mph /  25.7 km/h 75 % 0.00 in /  0 mm 9 W/m2
19:42 51.4 °F /  10.8 °C 44.1 °F /  6.7 °C 30.30 in /  1026 hPa ENE 7.0 mph /  11.3 km/h 13.0 mph /  20.9 km/h 76 % 0.00 in /  0 mm 9 W/m2
19:47 51.3 °F /  10.7 °C 44.0 °F /  6.7 °C 30.31 in /  1026.3 hPa ENE 8.0 mph /  12.9 km/h 15.0 mph /  24.1 km/h 76 % 0.00 in /  0 mm 7 W/m2
19:52 51.1 °F /  10.6 °C 44.1 °F /  6.7 °C 30.31 in /  1026.3 hPa ENE 8.0 mph /  12.9 km/h 15.0 mph /  24.1 km/h 77 % 0.00 in /  0 mm 5 W/m2
19:57 51.1 °F /  10.6 °C 44.1 °F /  6.7 °C 30.31 in /  1026.3 hPa ENE 7.0 mph /  11.3 km/h 14.0 mph /  22.5 km/h 77 % 0.00 in /  0 mm 7 W/m2
20:02 50.9 °F /  10.5 °C 43.9 °F /  6.6 °C 30.31 in /  1026.3 hPa ENE 6.0 mph /  9.7 km/h 13.0 mph /  20.9 km/h 77 % 0.00 in /  0 mm 5 W/m2
20:07 50.7 °F /  10.4 °C 44.1 °F /  6.7 °C 30.31 in /  1026.3 hPa ENE 7.0 mph /  11.3 km/h 15.0 mph /  24.1 km/h 78 % 0.00 in /  0 mm 7 W/m2
20:12 50.7 °F /  10.4 °C 44.1 °F /  6.7 °C 30.31 in /  1026.3 hPa ENE 8.0 mph /  12.9 km/h 15.0 mph /  24.1 km/h 78 % 0.00 in /  0 mm 5 W/m2
20:17 50.5 °F /  10.3 °C 44.3 °F /  6.8 °C 30.31 in /  1026.3 hPa ENE 8.0 mph /  12.9 km/h 15.0 mph /  24.1 km/h 79 % 0.00 in /  0 mm 5 W/m2
20:22 50.4 °F /  10.2 °C 44.1 °F /  6.7 °C 30.31 in /  1026.3 hPa ENE 8.0 mph /  12.9 km/h 15.0 mph /  24.1 km/h 79 % 0.00 in /  0 mm 0 W/m2
20:27 50.4 °F /  10.2 °C 44.1 °F /  6.7 °C 30.31 in /  1026.3 hPa ENE 7.0 mph /  11.3 km/h 15.0 mph /  24.1 km/h 79 % 0.00 in /  0 mm 0 W/m2
20:32 50.4 °F /  10.2 °C 44.1 °F /  6.7 °C 30.31 in /  1026.3 hPa ENE 6.0 mph /  9.7 km/h 14.0 mph /  22.5 km/h 79 % 0.00 in /  0 mm 0 W/m2
20:37 50.2 °F /  10.1 °C 43.9 °F /  6.6 °C 30.32 in /  1026.6 hPa ENE 8.0 mph /  12.9 km/h 16.0 mph /  25.7 km/h 79 % 0.00 in /  0 mm 0 W/m2
20:42 50.0 °F /  10 °C 43.7 °F /  6.5 °C 30.32 in /  1026.6 hPa ENE 8.0 mph /  12.9 km/h 16.0 mph /  25.7 km/h 79 % 0.00 in /  0 mm 0 W/m2
20:47 49.8 °F /  9.9 °C 43.9 °F /  6.6 °C 30.32 in /  1026.6 hPa ENE 8.0 mph /  12.9 km/h 16.0 mph /  25.7 km/h 80 % 0.00 in /  0 mm 0 W/m2
20:50 49.8 °F /  9.9 °C 43.9 °F /  6.6 °C 30.32 in /  1026.6 hPa ENE 8.0 mph /  12.9 km/h 16.0 mph /  25.7 km/h 80 % 0.00 in /  0 mm 0 W/m2
20:51 49.8 °F /  9.9 °C 43.9 °F /  6.6 °C 30.32 in /  1026.6 hPa ENE 8.0 mph /  12.9 km/h 16.0 mph /  25.7 km/h 80 % 0.00 in /  0 mm 0 W/m2
20:56 49.6 °F /  9.8 °C 44.0 °F /  6.7 °C 30.32 in /  1026.6 hPa ENE 7.0 mph /  11.3 km/h 14.0 mph /  22.5 km/h 81 % 0.00 in /  0 mm 0 W/m2
21:01 49.5 °F /  9.7 °C 43.9 °F /  6.6 °C 30.33 in /  1027 hPa NE 7.0 mph /  11.3 km/h 18.0 mph /  29 km/h 81 % 0.00 in /  0 mm 0 W/m2
21:06 49.3 °F /  9.6 °C 43.7 °F /  6.5 °C 30.33 in /  1027 hPa NE 8.0 mph /  12.9 km/h 20.0 mph /  32.2 km/h 81 % 0.00 in /  0 mm 0 W/m2
21:11 49.1 °F /  9.5 °C 43.5 °F /  6.4 °C 30.33 in /  1027 hPa NE 8.0 mph /  12.9 km/h 20.0 mph /  32.2 km/h 81 % 0.00 in /  0 mm 0 W/m2
21:16 48.9 °F /  9.4 °C 43.7 °F /  6.5 °C 30.32 in /  1026.6 hPa NE 8.0 mph /  12.9 km/h 19.0 mph /  30.6 km/h 82 % 0.00 in /  0 mm 0 W/m2
21:21 48.7 °F /  9.3 °C 43.5 °F /  6.4 °C 30.33 in /  1027 hPa NE 7.0 mph /  11.3 km/h 14.0 mph /  22.5 km/h 82 % 0.00 in /  0 mm 0 W/m2
21:26 48.7 °F /  9.3 °C 43.5 °F /  6.4 °C 30.32 in /  1026.6 hPa NE 6.0 mph /  9.7 km/h 14.0 mph /  22.5 km/h 82 % 0.00 in /  0 mm 0 W/m2
21:31 48.6 °F /  9.2 °C 43.3 °F /  6.3 °C 30.33 in /  1027 hPa NE 6.0 mph /  9.7 km/h 14.0 mph /  22.5 km/h 82 % 0.00 in /  0 mm 0 W/m2
21:36 48.6 °F /  9.2 °C 43.3 °F /  6.3 °C 30.32 in /  1026.6 hPa NE 6.0 mph /  9.7 km/h 14.0 mph /  22.5 km/h 82 % 0.00 in /  0 mm 0 W/m2
21:41 48.6 °F /  9.2 °C 43.3 °F /  6.3 °C 30.33 in /  1027 hPa NE 5.0 mph /  8 km/h 14.0 mph /  22.5 km/h 82 % 0.00 in /  0 mm 0 W/m2
21:46 48.4 °F /  9.1 °C 43.1 °F /  6.2 °C 30.33 in /  1027 hPa NE 6.0 mph /  9.7 km/h 15.0 mph /  24.1 km/h 82 % 0.00 in /  0 mm 0 W/m2
21:51 48.2 °F /  9 °C 43.3 °F /  6.3 °C 30.33 in /  1027 hPa NE 7.0 mph /  11.3 km/h 15.0 mph /  24.1 km/h 83 % 0.00 in /  0 mm 0 W/m2
21:56 48.0 °F /  8.9 °C 43.1 °F /  6.2 °C 30.33 in /  1027 hPa NE 7.0 mph /  11.3 km/h 15.0 mph /  24.1 km/h 83 % 0.00 in /  0 mm 0 W/m2
22:01 48.0 °F /  8.9 °C 43.1 °F /  6.2 °C 30.33 in /  1027 hPa NE 7.0 mph /  11.3 km/h 15.0 mph /  24.1 km/h 83 % 0.00 in /  0 mm 0 W/m2
22:06 48.0 °F /  8.9 °C 43.1 °F /  6.2 °C 30.33 in /  1027 hPa NE 5.0 mph /  8 km/h 14.0 mph /  22.5 km/h 83 % 0.00 in /  0 mm 0 W/m2
22:11 47.8 °F /  8.8 °C 42.9 °F /  6.1 °C 30.33 in /  1027 hPa NE 5.0 mph /  8 km/h 12.0 mph /  19.3 km/h 83 % 0.00 in /  0 mm 0 W/m2
22:16 47.8 °F /  8.8 °C 43.2 °F /  6.2 °C 30.33 in /  1027 hPa NE 7.0 mph /  11.3 km/h 13.0 mph /  20.9 km/h 84 % 0.00 in /  0 mm 0 W/m2
22:21 47.8 °F /  8.8 °C 42.9 °F /  6.1 °C 30.33 in /  1027 hPa NE 7.0 mph /  11.3 km/h 13.0 mph /  20.9 km/h 83 % 0.00 in /  0 mm 0 W/m2
22:26 47.7 °F /  8.7 °C 42.8 °F /  6 °C 30.33 in /  1027 hPa NE 6.0 mph /  9.7 km/h 14.0 mph /  22.5 km/h 83 % 0.00 in /  0 mm 0 W/m2
22:31 47.7 °F /  8.7 °C 43.1 °F /  6.2 °C 30.33 in /  1027 hPa NE 5.0 mph /  8 km/h 14.0 mph /  22.5 km/h 84 % 0.00 in /  0 mm 0 W/m2
22:36 47.7 °F /  8.7 °C 43.1 °F /  6.2 °C 30.33 in /  1027 hPa NE 2.0 mph /  3.2 km/h 10.0 mph /  16.1 km/h 84 % 0.00 in /  0 mm 0 W/m2
22:41 47.7 °F /  8.7 °C 42.8 °F /  6 °C 30.33 in /  1027 hPa NE 2.0 mph /  3.2 km/h 13.0 mph /  20.9 km/h 83 % 0.00 in /  0 mm 0 W/m2
22:46 47.7 °F /  8.7 °C 42.8 °F /  6 °C 30.33 in /  1027 hPa NNE 4.0 mph /  6.4 km/h 13.0 mph /  20.9 km/h 83 % 0.00 in /  0 mm 0 W/m2
22:52 47.7 °F /  8.7 °C 42.8 °F /  6 °C 30.33 in /  1027 hPa NNE 4.0 mph /  6.4 km/h 10.0 mph /  16.1 km/h 83 % 0.00 in /  0 mm 0 W/m2
22:57 47.5 °F /  8.6 °C 42.6 °F /  5.9 °C 30.33 in /  1027 hPa NNE 6.0 mph /  9.7 km/h 14.0 mph /  22.5 km/h 83 % 0.00 in /  0 mm 0 W/m2
23:02 47.5 °F /  8.6 °C 42.9 °F /  6.1 °C 30.33 in /  1027 hPa NNE 6.0 mph /  9.7 km/h 14.0 mph /  22.5 km/h 84 % 0.00 in /  0 mm 0 W/m2
23:07 47.5 °F /  8.6 °C 42.9 °F /  6.1 °C 30.33 in /  1027 hPa NNE 5.0 mph /  8 km/h 12.0 mph /  19.3 km/h 84 % 0.00 in /  0 mm 0 W/m2
23:11 47.5 °F /  8.6 °C 42.9 °F /  6.1 °C 30.33 in /  1027 hPa NNE 6.0 mph /  9.7 km/h 12.0 mph /  19.3 km/h 84 % 0.00 in /  0 mm 0 W/m2
23:12 47.5 °F /  8.6 °C 42.9 °F /  6.1 °C 30.33 in /  1027 hPa NNE 6.0 mph /  9.7 km/h 12.0 mph /  19.3 km/h 84 % 0.00 in /  0 mm 0 W/m2
23:17 47.3 °F /  8.5 °C 42.7 °F /  5.9 °C 30.33 in /  1027 hPa NE 6.0 mph /  9.7 km/h 15.0 mph /  24.1 km/h 84 % 0.00 in /  0 mm 0 W/m2
23:22 47.3 °F /  8.5 °C 43.0 °F /  6.1 °C 30.33 in /  1027 hPa NE 7.0 mph /  11.3 km/h 15.0 mph /  24.1 km/h 85 % 0.00 in /  0 mm 0 W/m2
23:27 47.1 °F /  8.4 °C 42.8 °F /  6 °C 30.32 in /  1026.6 hPa NNE 6.0 mph /  9.7 km/h 13.0 mph /  20.9 km/h 85 % 0.00 in /  0 mm 0 W/m2
23:32 47.1 °F /  8.4 °C 42.8 °F /  6 °C 30.32 in /  1026.6 hPa NNE 5.0 mph /  8 km/h 12.0 mph /  19.3 km/h 85 % 0.00 in /  0 mm 0 W/m2
23:37 47.1 °F /  8.4 °C 42.8 °F /  6 °C 30.32 in /  1026.6 hPa NNE 6.0 mph /  9.7 km/h 13.0 mph /  20.9 km/h 85 % 0.00 in /  0 mm 0 W/m2
23:42 47.1 °F /  8.4 °C 42.8 °F /  6 °C 30.32 in /  1026.6 hPa NNE 7.0 mph /  11.3 km/h 13.0 mph /  20.9 km/h 85 % 0.00 in /  0 mm 0 W/m2
23:47 47.1 °F /  8.4 °C 42.8 °F /  6 °C 30.32 in /  1026.6 hPa NNE 6.0 mph /  9.7 km/h 12.0 mph /  19.3 km/h 85 % 0.00 in /  0 mm 0 W/m2
23:49 47.1 °F /  8.4 °C 42.8 °F /  6 °C 30.32 in /  1026.6 hPa NNE 6.0 mph /  9.7 km/h 14.0 mph /  22.5 km/h 85 % 0.00 in /  0 mm 0 W/m2
23:54 47.1 °F /  8.4 °C 42.8 °F /  6 °C 30.32 in /  1026.6 hPa NNE 7.0 mph /  11.3 km/h 14.0 mph /  22.5 km/h 85 % 0.00 in /  0 mm 0 W/m2
23:59 47.1 °F /  8.4 °C 42.8 °F /  6 °C 30.32 in /  1026.6 hPa NNE 6.0 mph /  9.7 km/h 12.0 mph /  19.3 km/h 85 % 0.00 in /  0 mm 0 W/m2
Delerius-Weather
Compliments of Weather Underground - 2.25 mb

Data updates at regular intervals.